createdAt,value
2017-06-15T00:00:30.721Z,54.85
2017-06-15T00:01:40.773Z,55.04
2017-06-15T00:02:51.123Z,55.04
2017-06-15T00:04:01.153Z,55.04
2017-06-15T00:05:11.494Z,55.04
2017-06-15T00:06:21.235Z,55.23
2017-06-15T00:07:31.584Z,55.04
2017-06-15T00:08:41.923Z,55.04
2017-06-15T00:09:51.961Z,55.04
2017-06-15T00:11:01.998Z,55.04
2017-06-15T00:12:12.390Z,55.04
2017-06-15T00:13:22.733Z,55.04
2017-06-15T00:14:33.083Z,55.04
2017-06-15T00:15:43.434Z,55.04
2017-06-15T00:16:53.479Z,55.04
2017-06-15T00:18:03.201Z,55.04
2017-06-15T00:19:13.244Z,55.04
2017-06-15T00:20:23.271Z,55.04
2017-06-15T00:21:33.615Z,55.04
2017-06-15T00:22:43.983Z,55.04
2017-06-15T00:23:54.387Z,55.04
2017-06-15T00:25:04.735Z,55.13
2017-06-15T00:26:15.084Z,55.04
2017-06-15T00:27:25.131Z,55.04
2017-06-15T00:28:35.504Z,55.13
2017-06-15T00:29:45.842Z,55.04
2017-06-15T00:30:56.185Z,55.04
2017-06-15T00:32:06.544Z,55.04
2017-06-15T00:33:16.889Z,55.04
2017-06-15T00:34:27.242Z,55.04
2017-06-15T00:35:37.332Z,55.01
2017-06-15T00:36:47.689Z,55.04
2017-06-15T00:37:57.755Z,55.01
2017-06-15T00:39:08.120Z,55.01
2017-06-15T00:40:18.466Z,55.01
2017-06-15T00:41:28.548Z,54.91
2017-06-15T00:42:38.901Z,54.91
2017-06-15T00:43:49.252Z,54.91
2017-06-15T00:44:59.279Z,55.01
2017-06-15T00:46:09.612Z,55.01
2017-06-15T00:47:19.990Z,55.01
2017-06-15T00:48:29.716Z,55.01
2017-06-15T00:49:39.755Z,55.01
2017-06-15T00:50:50.119Z,54.91
2017-06-15T00:52:00.479Z,55.01
2017-06-15T00:53:10.241Z,55.01
2017-06-15T00:54:20.585Z,54.82
2017-06-15T00:55:30.932Z,54.31
2017-06-15T00:56:40.968Z,54.89
2017-06-15T00:57:51.315Z,54.79
2017-06-15T00:59:01.706Z,54.41
2017-06-15T01:00:11.738Z,54.79
2017-06-15T01:01:22.096Z,54.6
2017-06-15T01:02:32.445Z,54.31
2017-06-15T01:03:42.784Z,54.41
2017-06-15T01:04:53.133Z,54.22
2017-06-15T01:06:03.495Z,54.41
2017-06-15T01:07:13.542Z,54.31
2017-06-15T01:08:23.566Z,54.31
2017-06-15T01:09:33.906Z,54.12
2017-06-15T01:10:44.237Z,54.41
2017-06-15T01:11:54.261Z,54.31
2017-06-15T01:13:04.601Z,54.5
2017-06-15T01:14:14.948Z,54.31
2017-06-15T01:15:24.975Z,54.31
2017-06-15T01:16:35.061Z,54.31
2017-06-15T01:17:45.401Z,54.31
2017-06-15T01:18:55.751Z,54.41
2017-06-15T01:20:06.101Z,54.31
2017-06-15T01:21:16.432Z,54.5
2017-06-15T01:22:26.771Z,54.47
2017-06-15T01:23:36.798Z,54.47
2017-06-15T01:24:47.143Z,54.69
2017-06-15T01:25:57.180Z,54.5
2017-06-15T01:27:07.521Z,54.31
2017-06-15T01:28:17.899Z,54.31
2017-06-15T01:29:27.932Z,54.41
2017-06-15T01:30:37.966Z,54.5
2017-06-15T01:31:47.989Z,54.31
2017-06-15T01:32:58.328Z,54.47
2017-06-15T01:34:08.717Z,54.38
2017-06-15T01:35:19.050Z,54.57
2017-06-15T01:36:29.391Z,54.47
2017-06-15T01:37:39.729Z,54.57
2017-06-15T01:38:50.079Z,54.38
2017-06-15T01:40:00.478Z,54.47
2017-06-15T01:41:10.810Z,54.19
2017-06-15T01:42:21.157Z,54.38
2017-06-15T01:43:31.498Z,54.28
2017-06-15T01:44:41.861Z,54.28
2017-06-15T01:47:35.395Z,54.28
2017-06-15T01:48:45.438Z,54.45
2017-06-15T01:49:55.788Z,54.57
2017-06-15T01:51:06.133Z,54.19
2017-06-15T01:52:16.167Z,54.47
2017-06-15T01:53:26.569Z,54.25
2017-06-15T01:54:36.922Z,54.45
2017-06-15T01:55:47.265Z,54.16
2017-06-15T01:56:57.619Z,54.16
2017-06-15T01:58:07.962Z,54.16
2017-06-15T01:59:18.049Z,54.16
2017-06-15T02:00:28.087Z,54.06
2017-06-15T02:01:38.426Z,54.45
2017-06-15T02:02:48.769Z,54.16
2017-06-15T02:03:58.798Z,54.25
2017-06-15T02:05:09.139Z,54.16
2017-06-15T02:06:19.471Z,54.25
2017-06-15T02:07:29.819Z,54.25
2017-06-15T02:08:40.148Z,54.35
2017-06-15T02:09:50.502Z,54.45
2017-06-15T02:11:00.271Z,54.16
2017-06-15T02:12:10.313Z,54.45
2017-06-15T02:13:20.692Z,54.35
2017-06-15T02:14:31.071Z,54.45
2017-06-15T02:15:41.420Z,54.45
2017-06-15T02:16:51.810Z,54.25
2017-06-15T02:18:01.841Z,54.55
2017-06-15T02:19:12.175Z,54.13
2017-06-15T02:20:22.515Z,54.25
2017-06-15T02:21:32.853Z,54.33
2017-06-15T02:22:43.246Z,54.33
2017-06-15T02:23:53.595Z,54.23
2017-06-15T02:25:03.639Z,54.23
2017-06-15T02:26:13.990Z,54.23
2017-06-15T02:27:24.339Z,54.23
2017-06-15T02:28:34.417Z,54.35
2017-06-15T02:29:44.758Z,54.23
2017-06-15T02:30:55.112Z,54.33
2017-06-15T02:32:05.137Z,54.33
2017-06-15T02:33:14.850Z,54.33
2017-06-15T02:34:24.873Z,54.04
2017-06-15T02:35:34.915Z,54.33
2017-06-15T02:36:44.651Z,54.23
2017-06-15T02:37:54.377Z,54.33
2017-06-15T02:39:04.085Z,54.42
2017-06-15T02:40:14.470Z,54.52
2017-06-15T02:41:24.507Z,54.52
2017-06-15T02:42:34.849Z,54.52
2017-06-15T02:43:44.878Z,54.42
2017-06-15T02:44:55.224Z,54.42
2017-06-15T02:46:05.299Z,54.42
2017-06-15T02:47:15.630Z,54.8
2017-06-15T02:48:25.343Z,54.42
2017-06-15T02:49:35.366Z,54.42
2017-06-15T02:50:45.693Z,54.8
2017-06-15T02:51:56.089Z,54.52
2017-06-15T02:53:06.433Z,54.52
2017-06-15T02:54:16.457Z,54.71
2017-06-15T02:55:26.178Z,54.42
2017-06-15T02:56:36.536Z,54.52
2017-06-15T02:57:46.303Z,54.42
2017-06-15T02:58:56.639Z,54.42
2017-06-15T03:00:06.976Z,54.33
2017-06-15T03:01:16.703Z,54.04
2017-06-15T03:33:06.565Z,52.03
2017-06-15T03:34:16.890Z,51.93
2017-06-15T03:35:26.924Z,53.08
2017-06-15T03:36:37.268Z,53.47
2017-06-15T03:37:47.607Z,53.85
2017-06-15T03:38:57.993Z,54.23
2017-06-15T03:40:07.707Z,54.36
2017-06-15T03:41:18.038Z,54.64
2017-06-15T03:42:28.371Z,54.64
2017-06-15T03:43:38.094Z,54.48
2017-06-15T03:44:48.483Z,54.57
2017-06-15T03:45:58.498Z,54.48
2017-06-15T03:47:08.571Z,54.5
2017-06-15T03:48:18.893Z,54.99
2017-06-15T03:49:29.243Z,54.53
2017-06-15T03:50:39.335Z,54.34
2017-06-15T03:51:49.368Z,54.17
2017-06-15T03:52:59.700Z,53.99
2017-06-15T03:54:10.042Z,54.01
2017-06-15T03:55:20.077Z,53.91
2017-06-15T03:56:30.475Z,54.21
2017-06-15T03:57:40.822Z,54.3
2017-06-15T03:58:51.153Z,54.11
2017-06-15T04:00:01.501Z,54.23
2017-06-15T04:01:11.534Z,54.42
2017-06-15T04:02:21.560Z,54.23
2017-06-15T04:03:31.936Z,54.04
2017-06-15T04:04:42.279Z,54.13
2017-06-15T04:05:52.630Z,53.87
2017-06-15T04:07:02.397Z,53.87
2017-06-15T04:08:12.438Z,54.06
2017-06-15T04:09:22.804Z,53.49
2017-06-15T04:10:33.152Z,53.87
2017-06-15T04:11:43.180Z,53.9
2017-06-15T04:12:53.567Z,53.9
2017-06-15T04:14:03.916Z,53.61
2017-06-15T04:15:13.946Z,53.61
2017-06-15T04:16:24.286Z,53.9
2017-06-15T04:17:34.317Z,53.54
2017-06-15T04:18:44.349Z,51.74
2017-06-15T04:19:54.696Z,49.34
2017-06-15T04:21:04.719Z,47.55
2017-06-15T04:22:15.086Z,46.97
2017-06-15T04:23:25.427Z,46.75
2017-06-15T04:24:35.814Z,46.14
2017-06-15T04:25:46.161Z,46.3
2017-06-15T04:26:56.199Z,46.25
2017-06-15T04:28:06.543Z,47.05
2017-06-15T04:29:16.257Z,47
2017-06-15T04:30:26.350Z,46.83
2017-06-15T04:31:36.087Z,46.88
2017-06-15T04:32:46.417Z,46.99
2017-06-15T04:33:56.777Z,47.02
2017-06-15T04:35:07.119Z,47.06
2017-06-15T04:36:17.197Z,47.06
2017-06-15T04:37:27.542Z,47.01
2017-06-15T04:38:37.899Z,47.23
2017-06-15T04:39:48.235Z,47.23
2017-06-15T04:40:58.274Z,46.95
2017-06-15T04:42:08.374Z,46.98
2017-06-15T04:43:18.712Z,46.88
2017-06-15T04:44:29.067Z,47.49
2017-06-15T04:45:39.404Z,47.2
2017-06-15T04:46:49.750Z,47.32
2017-06-15T04:48:00.093Z,47.34
2017-06-15T04:49:10.145Z,46.85
2017-06-15T04:50:20.491Z,47.27
2017-06-15T04:51:30.845Z,46.97
2017-06-15T04:52:41.195Z,47.09
2017-06-15T04:53:51.558Z,47.19
2017-06-15T04:55:01.595Z,47.29
2017-06-15T04:56:11.313Z,47.22
2017-06-15T04:57:21.352Z,47.02
2017-06-15T04:58:31.706Z,47.31
2017-06-15T04:59:42.056Z,47.12
2017-06-15T05:00:52.402Z,47.44
2017-06-15T05:02:02.747Z,47.44
2017-06-15T05:03:13.116Z,47.04
2017-06-15T05:04:23.140Z,47.24
2017-06-15T05:05:33.541Z,47.26
2017-06-15T05:06:43.894Z,47.26
2017-06-15T05:07:54.246Z,47.26
2017-06-15T05:09:04.607Z,47.36
2017-06-15T05:10:14.948Z,47.26
2017-06-15T05:11:25.363Z,47.38
2017-06-15T05:12:35.655Z,47.28
2017-06-15T05:13:46.003Z,47.19
2017-06-15T05:14:56.053Z,47.48
2017-06-15T05:16:06.405Z,47.48
2017-06-15T05:17:16.759Z,47.66
2017-06-15T05:18:27.110Z,47.75
2017-06-15T05:19:37.145Z,47.95
2017-06-15T05:20:47.495Z,47.66
2017-06-15T05:21:57.532Z,47.92
2017-06-15T05:23:07.938Z,47.92
2017-06-15T05:24:18.277Z,47.73
2017-06-15T05:25:28.627Z,47.92
2017-06-15T05:26:38.974Z,47.63
2017-06-15T05:27:49.317Z,48
2017-06-15T05:28:59.420Z,47.92
2017-06-15T05:30:09.463Z,47.73
2017-06-15T05:31:19.820Z,47.83
2017-06-15T05:32:29.873Z,47.66
2017-06-15T05:33:39.912Z,47.95
2017-06-15T05:34:49.959Z,47.95
2017-06-15T05:36:00.333Z,48.05
2017-06-15T05:37:10.732Z,47.66
2017-06-15T05:38:21.113Z,47.83
2017-06-15T05:39:31.157Z,48.1
2017-06-15T05:40:41.243Z,48.1
2017-06-15T05:41:51.286Z,48.13
2017-06-15T05:43:01.640Z,48.2
2017-06-15T05:44:11.688Z,48.32
2017-06-15T05:45:21.731Z,48.1
2017-06-15T05:46:31.513Z,48.1
2017-06-15T05:47:41.549Z,48.1
2017-06-15T05:48:51.902Z,48.39
2017-06-15T05:50:01.946Z,48.77
2017-06-15T05:51:12.014Z,48.57
2017-06-15T05:52:22.431Z,48.67
2017-06-15T05:53:32.783Z,48.55
2017-06-15T05:54:42.521Z,48.25
2017-06-15T05:55:52.861Z,48.45
2017-06-15T05:57:02.593Z,48.52
2017-06-15T05:58:12.325Z,48.82
2017-06-15T05:59:22.680Z,48.62
2017-06-15T06:00:32.733Z,49.11
2017-06-15T06:01:42.789Z,49.08
2017-06-15T06:02:53.157Z,49.38
2017-06-15T06:04:03.561Z,49.58
2017-06-15T06:05:13.598Z,49.46
2017-06-15T06:06:23.963Z,50.42
2017-06-15T06:07:34.013Z,50.29
2017-06-15T06:08:44.070Z,50.49
2017-06-15T06:09:54.160Z,50.46
2017-06-15T06:11:04.514Z,50.46
2017-06-15T06:12:14.876Z,50.46
2017-06-15T06:13:24.971Z,50.56
2017-06-15T06:14:35.003Z,50.44
2017-06-15T06:15:45.343Z,50.44
2017-06-15T06:16:55.376Z,50.81
2017-06-15T06:18:05.409Z,51
2017-06-15T06:19:15.751Z,51
2017-06-15T06:20:26.096Z,50.88
2017-06-15T06:21:36.497Z,51.2
2017-06-15T06:22:46.850Z,51.07
2017-06-15T06:23:56.568Z,51.37
2017-06-15T06:25:06.946Z,51.15
2017-06-15T06:26:17.304Z,51.44
2017-06-15T06:27:27.413Z,51.15
2017-06-15T06:28:37.771Z,51.51
2017-06-15T06:29:48.134Z,51.32
2017-06-15T06:30:58.484Z,51.22
2017-06-15T06:32:08.843Z,51.32
2017-06-15T06:33:19.197Z,51.51
2017-06-15T06:34:29.235Z,51.49
2017-06-15T06:35:39.278Z,51.51
2017-06-15T06:36:49.319Z,51.59
2017-06-15T06:37:59.711Z,51.59
2017-06-15T06:39:10.117Z,51.78
2017-06-15T06:40:20.486Z,52.17
2017-06-15T06:41:30.851Z,51.56
2017-06-15T06:42:40.892Z,52.64
2017-06-15T06:43:50.941Z,52.41
2017-06-15T06:45:01.035Z,52.22
2017-06-15T06:46:11.395Z,52.09
2017-06-15T06:47:21.759Z,52.09
2017-06-15T06:48:31.807Z,52.29
2017-06-15T06:49:42.157Z,52.46
2017-06-15T06:50:52.210Z,52.56
2017-06-15T06:52:02.260Z,52.46
2017-06-15T06:53:12.608Z,52.36
2017-06-15T06:54:22.969Z,52.44
2017-06-15T06:55:33.007Z,52.44
2017-06-15T06:56:43.112Z,52.92
2017-06-15T06:57:53.159Z,53.28
2017-06-15T06:59:02.867Z,53.19
2017-06-15T07:00:13.217Z,53.06
2017-06-15T07:01:23.593Z,53.06
2017-06-15T07:02:33.328Z,53.06
2017-06-15T07:03:43.693Z,53.04
2017-06-15T07:04:53.740Z,53.04
2017-06-15T07:06:03.769Z,52.94
2017-06-15T07:07:13.846Z,53.14
2017-06-15T07:08:24.201Z,53.04
2017-06-15T07:09:34.248Z,53.04
2017-06-15T07:10:44.588Z,53.04
2017-06-15T07:11:54.620Z,53.01
2017-06-15T07:13:04.963Z,52.55
2017-06-15T07:14:15.322Z,52.92
2017-06-15T07:15:25.357Z,52.84
2017-06-15T07:16:35.725Z,52.82
2017-06-15T07:17:45.772Z,52.72
2017-06-15T07:18:56.148Z,52.98
2017-06-15T07:20:06.188Z,53.08
2017-06-15T07:21:16.537Z,52.79
2017-06-15T07:22:26.888Z,53.18
2017-06-15T07:23:37.243Z,53.28
2017-06-15T07:24:46.981Z,52.79
2017-06-15T07:25:57.372Z,52.72
2017-06-15T07:27:07.723Z,53.01
2017-06-15T07:28:18.068Z,52.72
2017-06-15T07:29:28.142Z,53.01
2017-06-15T07:30:38.203Z,53.2
2017-06-15T07:31:48.602Z,52.92
2017-06-15T07:32:58.954Z,52.82
2017-06-15T07:34:08.999Z,52.92
2017-06-15T07:35:19.358Z,52.72
2017-06-15T07:36:29.413Z,52.92
2017-06-15T07:37:39.509Z,52.72
2017-06-15T07:38:49.563Z,53.01
2017-06-15T07:39:59.926Z,52.98
2017-06-15T07:41:10.298Z,52.89
2017-06-15T07:42:20.643Z,52.89
2017-06-15T07:43:31.060Z,52.89
2017-06-15T07:44:41.418Z,52.79
2017-06-15T07:45:51.461Z,52.79
2017-06-15T07:47:01.812Z,52.72
2017-06-15T07:48:12.181Z,53.01
2017-06-15T07:49:22.590Z,52.92
2017-06-15T07:50:32.685Z,52.82
2017-06-15T07:51:43.046Z,52.72
2017-06-15T07:52:53.089Z,52.92
2017-06-15T07:54:03.136Z,52.72
2017-06-15T07:55:13.244Z,52.75
2017-06-15T07:56:23.604Z,52.82
2017-06-15T07:57:33.655Z,52.94
2017-06-15T07:58:44.010Z,53.14
2017-06-15T07:59:54.360Z,53.14
2017-06-15T08:01:04.765Z,53.04
2017-06-15T08:02:15.128Z,52.97
2017-06-15T08:03:25.179Z,53.04
2017-06-15T08:04:35.537Z,52.75
2017-06-15T08:05:45.894Z,52.94
2017-06-15T08:06:56.295Z,52.94
2017-06-15T08:08:06.545Z,53.04
2017-06-15T08:09:16.570Z,52.77
2017-06-15T08:10:26.597Z,53.06
2017-06-15T08:11:36.012Z,53.06
2017-06-15T08:12:46.058Z,52.77
2017-06-15T08:13:56.432Z,52.97
2017-06-15T08:15:07.003Z,52.97
2017-06-15T08:16:17.355Z,52.67
2017-06-15T08:17:27.715Z,52.97
2017-06-15T08:18:37.794Z,52.77
2017-06-15T08:19:47.510Z,52.58
2017-06-15T08:20:57.867Z,53.16
2017-06-15T08:22:07.927Z,52.8
2017-06-15T08:23:17.965Z,53.19
2017-06-15T08:24:28.334Z,53.19
2017-06-15T08:25:38.386Z,53.19
2017-06-15T08:26:48.737Z,53.19
2017-06-15T08:27:58.468Z,53.28
2017-06-15T08:29:08.815Z,53.09
2017-06-15T08:30:18.612Z,52.8
2017-06-15T08:31:28.948Z,53.09
2017-06-15T08:32:39.289Z,52.31
2017-06-15T08:33:49.331Z,53.09
2017-06-15T08:34:59.689Z,53.09
2017-06-15T08:36:09.099Z,52.6
2017-06-15T08:37:18.826Z,52.7
2017-06-15T08:38:29.185Z,53.09
2017-06-15T08:39:39.548Z,52.6
2017-06-15T08:40:49.913Z,53.09
2017-06-15T08:42:00.003Z,53.19
2017-06-15T08:43:10.365Z,53.09
2017-06-15T08:44:20.745Z,52.8
2017-06-15T08:45:31.155Z,52.99
2017-06-15T08:46:41.525Z,53.09
2017-06-15T08:47:51.630Z,53.09
2017-06-15T08:49:02.014Z,52.8
2017-06-15T08:50:12.065Z,52.83
2017-06-15T08:51:22.432Z,53.11
2017-06-15T08:52:32.493Z,52.92
2017-06-15T08:53:42.643Z,53.21
2017-06-15T08:54:53.025Z,53.02
2017-06-15T08:56:03.388Z,53.02
2017-06-15T08:57:13.435Z,53.02
2017-06-15T08:58:23.482Z,52.95
2017-06-15T08:59:33.212Z,53.34
2017-06-15T09:00:43.261Z,53.14
2017-06-15T09:01:53.612Z,53.05
2017-06-15T09:03:03.677Z,53.14
2017-06-15T09:04:14.024Z,53.44
2017-06-15T09:05:24.067Z,53.14
2017-06-15T09:06:34.439Z,53.05
2017-06-15T09:07:44.817Z,53.05
2017-06-15T09:08:55.164Z,53.05
2017-06-15T09:10:05.520Z,53.05
2017-06-15T09:11:15.610Z,53.14
2017-06-15T09:12:25.964Z,53.36
2017-06-15T09:13:35.718Z,53.17
2017-06-15T09:14:46.071Z,53.36
2017-06-15T09:15:56.423Z,52.97
2017-06-15T09:17:06.820Z,53.17
2017-06-15T09:18:17.175Z,53.17
2017-06-15T09:19:27.223Z,53.17
2017-06-15T09:20:37.583Z,53.17
2017-06-15T09:21:47.948Z,52.87
2017-06-15T09:22:58.350Z,53.27
2017-06-15T09:24:08.392Z,52.66
2017-06-15T09:25:18.733Z,52.87
2017-06-15T09:26:28.785Z,52.87
2017-06-15T09:27:39.139Z,53.27
2017-06-15T09:28:49.542Z,53.17
2017-06-15T09:29:59.904Z,53
2017-06-15T09:31:10.257Z,53.29
2017-06-15T09:32:20.317Z,53.39
2017-06-15T09:33:30.673Z,53.09
2017-06-15T09:34:41.070Z,53.09
2017-06-15T09:35:51.113Z,53.27
2017-06-15T09:37:01.471Z,53.09
2017-06-15T09:38:11.836Z,53.09
2017-06-15T09:39:21.899Z,53.09
2017-06-15T09:40:31.682Z,52.9
2017-06-15T09:41:42.036Z,53.52
2017-06-15T09:42:52.389Z,53.32
2017-06-15T09:44:02.737Z,52.93
2017-06-15T09:45:13.099Z,53.61
2017-06-15T09:46:22.883Z,52.64
2017-06-15T09:47:33.238Z,52.47
2017-06-15T09:48:43.604Z,52.66
2017-06-15T09:49:53.647Z,52.56
2017-06-15T09:51:04.004Z,53.34
2017-06-15T09:52:14.098Z,53.34
2017-06-15T09:53:24.457Z,53.34
2017-06-15T09:54:34.197Z,52.95
2017-06-15T09:55:44.554Z,52.88
2017-06-15T09:56:54.926Z,52.78
2017-06-15T09:58:05.325Z,52.49
2017-06-15T09:59:15.377Z,52.98
2017-06-15T10:00:25.737Z,53.47
2017-06-15T10:01:35.775Z,53.17
2017-06-15T10:02:45.839Z,53.25
2017-06-15T10:03:56.196Z,53.05
2017-06-15T10:05:06.248Z,53.34
2017-06-15T10:06:16.296Z,53.44
2017-06-15T10:07:26.652Z,53.34
2017-06-15T10:08:36.397Z,53.05
2017-06-15T10:09:46.735Z,53.25
2017-06-15T10:10:56.788Z,53.34
2017-06-15T10:12:07.149Z,53.66
2017-06-15T10:13:17.497Z,53.37
2017-06-15T10:14:27.853Z,53.47
2017-06-15T10:15:37.626Z,53.47
2017-06-15T10:16:48.033Z,53.37
2017-06-15T10:17:58.400Z,53.56
2017-06-15T10:19:08.778Z,53.37
2017-06-15T10:20:18.830Z,53.27
2017-06-15T10:21:28.931Z,53.08
2017-06-15T10:22:38.970Z,53.08
2017-06-15T10:23:49.029Z,53.59
2017-06-15T10:24:59.074Z,53.37
2017-06-15T10:26:09.447Z,53.3
2017-06-15T10:27:19.226Z,53.49
2017-06-15T10:28:29.254Z,53.49
2017-06-15T10:29:38.982Z,53.59
2017-06-15T10:30:49.363Z,53.49
2017-06-15T10:31:59.738Z,53.2
2017-06-15T10:33:09.852Z,53.1
2017-06-15T10:34:20.213Z,52.61
2017-06-15T10:35:30.266Z,52.64
2017-06-15T10:36:40.629Z,52.44
2017-06-15T10:37:50.975Z,52.54
2017-06-15T10:39:01.385Z,52.64
2017-06-15T10:40:11.122Z,52.73
2017-06-15T10:41:21.158Z,52.83
2017-06-15T10:42:31.506Z,52.64
2017-06-15T10:43:41.876Z,52.93
2017-06-15T10:44:52.286Z,52.64
2017-06-15T10:46:02.636Z,52.64
2017-06-15T10:47:13.014Z,52.44
2017-06-15T10:48:23.376Z,52.64
2017-06-15T10:49:33.536Z,52.54
2017-06-15T10:50:43.909Z,53.03
2017-06-15T10:51:54.273Z,53.13
2017-06-15T10:53:04.615Z,53.52
2017-06-15T10:54:14.987Z,53.42
2017-06-15T10:55:24.721Z,52.93
2017-06-15T10:56:35.126Z,52.64
2017-06-15T10:57:44.860Z,52.86
2017-06-15T10:58:55.227Z,53.06
2017-06-15T11:00:05.573Z,52.56
2017-06-15T11:01:15.937Z,52.86
2017-06-15T11:02:26.041Z,52.5
2017-06-15T11:03:36.399Z,52.4
2017-06-15T11:04:46.757Z,52.69
2017-06-15T11:05:57.134Z,52.69
2017-06-15T11:07:07.189Z,52.69
2017-06-15T11:08:17.281Z,52.69
2017-06-15T11:09:27.331Z,52.72
2017-06-15T11:10:37.389Z,52.81
2017-06-15T11:11:47.734Z,52.62
2017-06-15T11:12:58.103Z,52.62
2017-06-15T11:14:08.153Z,52.72
2017-06-15T11:15:18.552Z,52.45
2017-06-15T11:16:28.915Z,52.45
2017-06-15T11:17:39.272Z,52.94
2017-06-15T11:18:49.679Z,52.94
2017-06-15T11:19:59.727Z,53.43
2017-06-15T11:21:09.769Z,53.72
2017-06-15T11:22:19.830Z,53.53
2017-06-15T11:23:30.196Z,52.84
2017-06-15T11:24:40.625Z,52.64
2017-06-15T11:25:50.973Z,53.23
2017-06-15T11:27:01.023Z,52.74
2017-06-15T11:28:11.389Z,53.23
2017-06-15T11:29:21.576Z,53.53
2017-06-15T11:30:31.677Z,53.13
2017-06-15T11:31:41.724Z,52.74
2017-06-15T11:32:51.791Z,52.74
2017-06-15T11:34:02.142Z,52.45
2017-06-15T11:35:12.491Z,52.45
2017-06-15T11:36:22.901Z,52.76
2017-06-15T11:37:32.947Z,52.67
2017-06-15T11:38:43.285Z,52.86
2017-06-15T11:39:53.336Z,52.94
2017-06-15T11:41:03.370Z,52.96
2017-06-15T11:42:13.774Z,52.96
2017-06-15T11:43:24.145Z,53.16
2017-06-15T11:44:34.506Z,53.03
2017-06-15T11:45:44.866Z,52.74
2017-06-15T11:46:54.597Z,52.84
2017-06-15T11:48:04.993Z,52.74
2017-06-15T11:49:15.050Z,52.64
2017-06-15T11:50:25.431Z,52.72
2017-06-15T11:51:35.494Z,52.62
2017-06-15T11:52:45.856Z,52.91
2017-06-15T11:53:55.945Z,52.91
2017-06-15T11:55:05.996Z,52.62
2017-06-15T11:56:16.370Z,52.62
2017-06-15T11:57:26.736Z,52.72
2017-06-15T11:58:37.102Z,53.01
2017-06-15T11:59:47.198Z,53.11
2017-06-15T12:00:57.535Z,52.42
2017-06-15T12:02:07.900Z,52.42
2017-06-15T12:03:17.969Z,52.91
2017-06-15T12:04:28.321Z,53.01
2017-06-15T12:05:38.567Z,52.72
2017-06-15T12:06:48.925Z,52.74
2017-06-15T12:07:59.311Z,52.55
2017-06-15T12:09:09.684Z,52.47
2017-06-15T12:10:19.742Z,52.47
2017-06-15T12:11:29.785Z,52.37
2017-06-15T12:12:40.147Z,52.47
2017-06-15T12:13:50.180Z,52.96
2017-06-15T12:15:00.560Z,52.86
2017-06-15T12:16:10.912Z,52.76
2017-06-15T12:17:21.344Z,52.47
2017-06-15T12:18:31.693Z,52.8
2017-06-15T12:19:42.042Z,52.69
2017-06-15T12:20:52.104Z,52.8
2017-06-15T12:22:02.458Z,52.89
2017-06-15T12:23:12.235Z,52.8
2017-06-15T12:24:22.588Z,53.19
2017-06-15T12:25:32.954Z,52.8
2017-06-15T12:26:43.313Z,52.8
2017-06-15T12:27:53.682Z,52.89
2017-06-15T12:29:03.777Z,52.99
2017-06-15T12:30:14.152Z,52.8
2017-06-15T12:31:24.526Z,53.02
2017-06-15T12:32:34.891Z,52.82
2017-06-15T12:33:45.249Z,52.92
2017-06-15T12:34:55.360Z,52.82
2017-06-15T12:36:05.712Z,52.99
2017-06-15T12:37:16.074Z,52.59
2017-06-15T12:38:26.435Z,52.69
2017-06-15T12:39:36.792Z,52.8
2017-06-15T12:40:46.885Z,52.8
2017-06-15T12:41:57.259Z,53.19
2017-06-15T12:43:07.621Z,53.21
2017-06-15T12:44:17.997Z,52.72
2017-06-15T12:45:28.044Z,52.62
2017-06-15T12:46:38.398Z,52.72
2017-06-15T12:47:48.770Z,52.82
2017-06-15T12:48:59.136Z,52.72
2017-06-15T12:50:09.524Z,52.72
2017-06-15T12:51:19.571Z,52.52
2017-06-15T12:52:29.685Z,52.82
2017-06-15T12:53:39.725Z,53.11
2017-06-15T12:54:50.090Z,52.72
2017-06-15T12:56:00.137Z,52.82
2017-06-15T12:57:10.490Z,52.92
2017-06-15T12:58:20.851Z,52.62
2017-06-15T12:59:31.216Z,52.82
2017-06-15T13:00:41.258Z,52.82
2017-06-15T13:01:51.311Z,52.52
2017-06-15T13:03:01.358Z,52.92
2017-06-15T13:04:11.790Z,53.19
2017-06-15T13:05:21.846Z,53.02
2017-06-15T13:06:32.233Z,52.8
2017-06-15T13:07:42.594Z,53.28
2017-06-15T13:08:52.932Z,53.09
2017-06-15T13:10:03.346Z,52.69
2017-06-15T13:11:13.705Z,52.92
2017-06-15T13:12:23.756Z,52.72
2017-06-15T13:13:33.810Z,53.02
2017-06-15T13:14:44.180Z,53.02
2017-06-15T13:15:54.590Z,52.55
2017-06-15T13:17:04.959Z,52.65
2017-06-15T13:18:15.323Z,53.04
2017-06-15T13:19:25.357Z,52.94
2017-06-15T13:20:35.710Z,52.94
2017-06-15T13:21:46.086Z,53.14
2017-06-15T13:22:56.454Z,52.84
2017-06-15T13:24:06.800Z,52.77
2017-06-15T13:25:17.148Z,52.75
2017-06-15T13:26:27.517Z,52.75
2017-06-15T13:27:37.616Z,52.94
2017-06-15T13:28:47.667Z,52.84
2017-06-15T13:29:57.723Z,53.33
2017-06-15T13:31:07.452Z,52.94
2017-06-15T13:32:17.490Z,52.84
2017-06-15T13:33:27.904Z,52.94
2017-06-15T13:34:38.299Z,52.65
2017-06-15T13:35:48.670Z,52.87
2017-06-15T13:36:59.046Z,52.97
2017-06-15T13:38:09.405Z,52.94
2017-06-15T13:39:19.803Z,53.33
2017-06-15T13:40:30.206Z,53.73
2017-06-15T13:41:40.263Z,53.63
2017-06-15T13:42:50.644Z,53.73
2017-06-15T13:44:01.032Z,53.53
2017-06-15T13:45:11.447Z,53.44
2017-06-15T13:46:21.817Z,53.73
2017-06-15T13:47:32.180Z,53.83
2017-06-15T13:48:42.547Z,53.83
2017-06-15T13:49:52.605Z,53.53
2017-06-15T13:51:03.021Z,53.63
2017-06-15T13:52:13.073Z,53.73
2017-06-15T13:53:23.122Z,53.73
2017-06-15T13:54:33.185Z,53.7
2017-06-15T13:55:43.555Z,53.73
2017-06-15T13:56:53.625Z,53.83
2017-06-15T13:58:03.366Z,53.31
2017-06-15T13:59:13.714Z,53.73
2017-06-15T14:00:24.057Z,53.6
2017-06-15T14:01:34.424Z,53.5
2017-06-15T14:02:44.218Z,53.48
2017-06-15T14:03:54.278Z,53.38
2017-06-15T14:05:04.638Z,53.38
2017-06-15T14:06:15.011Z,53.48
2017-06-15T14:07:25.360Z,53.38
2017-06-15T14:08:35.703Z,53.48
2017-06-15T14:09:45.746Z,53.38
2017-06-15T14:10:56.105Z,53.28
2017-06-15T14:12:06.156Z,53.48
2017-06-15T14:13:16.528Z,53.48
2017-06-15T14:14:26.940Z,53.28
2017-06-15T14:15:37.308Z,53.48
2017-06-15T14:16:47.355Z,53.38
2017-06-15T14:17:57.432Z,53.58
2017-06-15T14:19:07.802Z,53.67
2017-06-15T14:20:18.215Z,53.38
2017-06-15T14:21:28.570Z,53.28
2017-06-15T14:22:38.946Z,53.58
2017-06-15T14:23:49.305Z,53.67
2017-06-15T14:24:59.667Z,53.65
2017-06-15T14:26:09.772Z,53.26
2017-06-15T14:27:20.285Z,53.55
2017-06-15T14:28:30.707Z,53.26
2017-06-15T14:29:41.047Z,53.38
2017-06-15T14:30:51.423Z,53.67
2017-06-15T14:32:01.535Z,53.77
2017-06-15T14:33:11.895Z,53.58
2017-06-15T14:34:22.264Z,53.67
2017-06-15T14:35:32.627Z,53.58
2017-06-15T14:36:43.011Z,53.8
2017-06-15T14:37:52.826Z,53.21
2017-06-15T14:39:03.207Z,53.41
2017-06-15T14:40:13.565Z,53.5
2017-06-15T14:41:23.928Z,53.6
2017-06-15T14:42:34.312Z,53.5
2017-06-15T14:43:44.378Z,53.5
2017-06-15T14:44:54.736Z,53.31
2017-06-15T14:46:05.118Z,53.6
2017-06-15T14:47:15.475Z,53.7
2017-06-15T14:48:25.823Z,53.5
2017-06-15T14:49:36.232Z,53.41
2017-06-15T14:50:46.587Z,53.19
2017-06-15T14:51:56.637Z,53.19
2017-06-15T14:53:06.682Z,53.09
2017-06-15T14:54:17.049Z,53.19
2017-06-15T14:55:27.458Z,53.5
2017-06-15T14:56:37.809Z,53.48
2017-06-15T14:57:48.181Z,53.6
2017-06-15T14:58:58.216Z,53.5
2017-06-15T15:00:08.570Z,53.6
2017-06-15T15:01:18.648Z,53.58
2017-06-15T15:02:28.703Z,53.5
2017-06-15T15:03:38.731Z,53.48
2017-06-15T15:04:48.471Z,53.09
2017-06-15T15:05:58.842Z,53.28
2017-06-15T15:07:09.216Z,53.09
2017-06-15T15:08:19.276Z,53.28
2017-06-15T15:09:29.628Z,53.19
2017-06-15T15:10:39.663Z,53.67
2017-06-15T15:11:50.039Z,53.67
2017-06-15T15:13:00.144Z,53.55
2017-06-15T15:14:10.200Z,53.26
2017-06-15T15:15:20.233Z,53.26
2017-06-15T15:16:30.618Z,53.36
2017-06-15T15:17:40.346Z,53.45
2017-06-15T15:18:50.771Z,53.36
2017-06-15T15:20:01.145Z,53.26
2017-06-15T15:21:11.508Z,53.45
2017-06-15T15:22:21.866Z,53.55
2017-06-15T15:23:32.225Z,53.43
2017-06-15T15:24:42.344Z,53.16
2017-06-15T15:25:52.383Z,52.76
2017-06-15T15:27:02.747Z,53.63
2017-06-15T15:28:13.109Z,53.13
2017-06-15T15:29:23.478Z,53.03
2017-06-15T15:30:33.835Z,52.74
2017-06-15T15:31:44.211Z,53.23
2017-06-15T15:32:53.951Z,52.96
2017-06-15T15:34:04.325Z,53.36
2017-06-15T15:35:14.362Z,52.67
2017-06-15T15:36:24.461Z,53.45
2017-06-15T15:37:34.181Z,53.16
2017-06-15T15:38:44.534Z,53.55
2017-06-15T15:39:54.903Z,53.06